Port Hope, MI

05:30 EDT le 31 juillet 2016 (GMT -0400)
Eastwatch-by-the-Sea | | Change Station

Alt. 565 ft 43.95 °N, 82.72 °W | Updated 13 seconds ago

Couvert
Couvert
67.1 ° F
Paraît 67.1 ° F
N
3.6
Vent Variable Vent de ENE
Gusts 4.9 mph

Aujourd'hui
Haut(e) -- | Bas -- ° F
--% Risque de précip.
Hier
Haut(e) -- | Bas -- ° F
Precip. -- pouce
Pression 30.03 pouce
Visibilité 7.0 Miles terrestres
Nuages Nuages épars 1900 ft
Nuages épars 5000 ft
Couvert 11000 ft
Point de rosée 57 ° F
Humidité 69%
Précipitations 0.18 pouce
Profondeur de la couche neigeuse Non disponible.
6:18 AM 8:55 PM
Lune descendante, 7% visible
METAR KBAX 310913Z AUTO 07003KT 7SM RA SCT019 SCT050 OVC110 17/16 A3003 RMK AO2 T01650161
Pression 30.03 pouce
Visibilité 7.0 Miles terrestres
Nuages Nuages épars 1900 ft
Nuages épars 5000 ft
Couvert 11000 ft
Point de rosée 57 ° F
Humidité 69%
Précipitations 0.18 pouce
Profondeur de la couche neigeuse Non disponible.
6:18 AM 8:55 PM
Lune descendante, 7% visible
METAR KBAX 310913Z AUTO 07003KT 7SM RA SCT019 SCT050 OVC110 17/16 A3003 RMK AO2 T01650161

10-Day Weather Forecast

Almanac

Astronomie

Jul. 31, 2016 Lever Coucher
Temps réel
Crépuscule civil
Crépuscule nautique
Crépuscule astronomique
Lune
Durée de lumière visible
Longueur du jour
Tomorrow will be .
, % of the Moon is Illuminated

Extrêmes aujourd'hui

State Highs State Lows

Community

WunderPhotos

Upload Photos

1,928,776 Photos téléchargées !

WunderBlog® & News

Nearby

Qualité de l'air

  Qualité de l'air Indice de la qualité de l'air Polluant
Not available.

Épaisseur de neige

Station Depth Altitude

Activité sismique

Ville Distance Mag. Time & Date
Minimum magnitude displayed is 2.5.

Températures des eaux côtières

Lieu Température

Stations

Stations météo à proximité

Emplacement de la station Température Refroidissement éolien Point de rosée Humidité Vent Precip. Alt. Mise à jour Type
                   

Watches & Warnings

There are currently no watches in effect.